Time;durP1;ratioP1;P1;durP2;ratioP2;P2;SDS_P1;SDS_P2;PMS_P1;PMS_P2;Temp;Humidity;BMP_temperature;BMP_pressure;BME280_temperature;BME280_humidity;BME280_pressure;Samples;Min_cycle;Max_cycle;Signal;HPM_P1;HPM_P2
2023/08/27 00:01:00;;;;;;;9.57;4.97;;;;;;;20.33;77.24;100045.63;5072778;28;20716;-69
2023/08/27 00:03:27;;;;;;;6.73;4.60;;;;;;;20.41;77.30;100037.28;5074829;28;20284;-68
2023/08/27 00:05:57;;;;;;;6.97;3.87;;;;;;;20.38;77.29;100037.75;5076935;28;20526;-67
2023/08/27 00:08:24;;;;;;;8.00;4.20;;;;;;;20.35;77.32;100027.41;5071210;28;20239;-66
2023/08/27 00:10:59;;;;;;;9.27;4.40;;;;;;;20.40;76.87;100018.69;5073099;28;20276;-67
2023/08/27 00:13:26;;;;;;;7.90;4.47;;;;;;;20.47;76.68;100035.59;5073835;28;20262;-68
2023/08/27 00:15:54;;;;;;;9.23;3.80;;;;;;;20.51;76.24;100043.00;5074601;28;20207;-66
2023/08/27 00:18:22;;;;;;;9.73;3.97;;;;;;;20.56;76.40;100024.31;5071521;28;20917;-67
2023/08/27 00:20:50;;;;;;;6.60;4.10;;;;;;;20.58;76.45;100030.28;5077392;28;20213;-67
2023/08/27 00:23:17;;;;;;;8.33;4.53;;;;;;;20.57;76.35;100031.34;5074426;28;20230;-68
2023/08/27 00:25:45;;;;;;;9.57;5.83;;;;;;;20.54;76.26;100042.56;5076183;28;20290;-67
2023/08/27 00:28:15;;;;;;;7.53;4.57;;;;;;;20.52;76.48;100036.56;5074884;28;20351;-67
2023/08/27 00:30:43;;;;;;;8.10;4.77;;;;;;;20.54;76.14;100030.97;5076293;28;20230;-68
2023/08/27 00:33:11;;;;;;;13.77;6.60;;;;;;;20.57;75.90;100031.34;5076848;28;20709;-67
2023/08/27 00:35:39;;;;;;;10.17;5.93;;;;;;;20.60;75.82;100022.81;5075892;28;20203;-68
2023/08/27 00:38:06;;;;;;;10.23;5.33;;;;;;;20.60;75.31;100027.38;5079681;28;20207;-68
2023/08/27 00:40:34;;;;;;;8.97;4.67;;;;;;;20.57;75.58;100020.56;5076712;28;20322;-70
2023/08/27 00:43:03;;;;;;;12.03;5.47;;;;;;;20.57;75.78;100041.31;5081723;28;20226;-67
2023/08/27 00:45:32;;;;;;;9.13;4.93;;;;;;;20.53;75.54;100032.81;5075463;28;20318;-67
2023/08/27 00:48:00;;;;;;;10.40;5.07;;;;;;;20.54;75.97;100018.31;5073314;28;20240;-67
2023/08/27 00:50:27;;;;;;;8.47;5.00;;;;;;;20.49;75.94;100023.53;5075521;28;20203;-66
2023/08/27 00:52:55;;;;;;;9.40;4.63;;;;;;;20.51;76.19;100026.84;5073344;28;20786;-67
2023/08/27 00:55:23;;;;;;;6.93;4.40;;;;;;;20.54;75.98;100029.09;5073366;28;20226;-67
2023/08/27 00:57:52;;;;;;;7.20;5.13;;;;;;;20.51;76.26;100043.00;5075505;28;20736;-68
2023/08/27 01:00:20;;;;;;;6.87;4.60;;;;;;;20.48;76.21;100045.34;5072821;28;20206;-67
2023/08/27 01:02:49;;;;;;;9.40;5.30;;;;;;;20.45;76.85;100049.28;5075128;28;20204;-67
2023/08/27 01:05:20;;;;;;;13.13;6.20;;;;;;;20.42;77.16;100049.72;5071166;28;20203;-70
2023/08/27 01:07:53;;;;;;;9.80;5.80;;;;;;;20.43;76.77;100050.53;5074915;28;20211;-66
2023/08/27 01:10:32;;;;;;;11.07;6.60;;;;;;;20.44;77.12;100050.31;5072628;28;20618;-68
2023/08/27 01:13:03;;;;;;;8.40;4.63;;;;;;;20.39;76.03;100036.72;5076736;28;20648;-67
2023/08/27 01:15:32;;;;;;;8.27;3.93;;;;;;;20.38;75.25;100039.63;5075642;28;20726;-68
2023/08/27 01:18:03;;;;;;;6.83;3.73;;;;;;;20.35;75.44;100038.19;5074544;28;20215;-68
2023/08/27 01:20:31;;;;;;;6.90;3.63;;;;;;;20.34;75.53;100039.22;5072861;28;20284;-67
2023/08/27 01:23:01;;;;;;;5.00;3.33;;;;;;;20.30;74.79;100024.56;5074947;28;20666;-67
2023/08/27 01:25:41;;;;;;;7.03;3.40;;;;;;;20.26;75.68;100017.94;5074923;28;20310;-67
2023/08/27 01:28:15;;;;;;;6.57;3.30;;;;;;;20.18;75.75;100026.31;5074547;28;20789;-67
2023/08/27 01:30:50;;;;;;;7.33;3.33;;;;;;;20.20;75.61;100025.06;5078105;28;20195;-70
2023/08/27 01:33:22;;;;;;;5.23;3.00;;;;;;;20.31;74.94;100031.59;5074653;28;20675;-67
2023/08/27 01:35:50;;;;;;;5.40;3.03;;;;;;;20.33;73.85;100034.03;5073479;28;20198;-66
2023/08/27 01:38:21;;;;;;;7.27;2.90;;;;;;;20.34;74.21;100025.78;5074809;28;20222;-68
2023/08/27 01:40:48;;;;;;;6.33;2.80;;;;;;;20.38;73.50;100027.00;5072547;28;20231;-68
2023/08/27 01:43:16;;;;;;;5.20;2.73;;;;;;;20.41;73.14;100018.44;5075013;28;20262;-68
2023/08/27 01:45:44;;;;;;;5.97;2.23;;;;;;;20.42;72.89;99998.56;5072464;28;20207;-67
2023/08/27 01:48:11;;;;;;;3.63;2.50;;;;;;;20.32;73.24;100003.59;5071701;28;20267;-67
2023/08/27 01:50:39;;;;;;;8.13;2.80;;;;;;;20.20;73.48;99997.31;5072509;28;20282;-67
2023/08/27 01:53:07;;;;;;;7.83;2.63;;;;;;;20.15;74.17;99994.44;5073825;28;20609;-68
2023/08/27 01:55:38;;;;;;;5.30;2.50;;;;;;;20.09;74.71;99985.41;5074041;28;20665;-67
2023/08/27 01:58:06;;;;;;;5.97;2.60;;;;;;;20.03;74.65;99991.69;5074214;28;20199;-68
2023/08/27 02:00:33;;;;;;;6.17;3.10;;;;;;;20.04;74.81;99997.88;5074378;28;20203;-67
2023/08/27 02:03:03;;;;;;;5.47;2.60;;;;;;;20.11;74.44;100017.47;5068143;28;20746;-69
2023/08/27 02:05:31;;;;;;;6.50;2.60;;;;;;;20.18;73.71;100011.00;5071268;28;20207;-68
2023/08/27 02:07:58;;;;;;;8.50;3.20;;;;;;;20.18;73.59;99972.47;5073752;28;20318;-68
2023/08/27 02:10:26;;;;;;;7.83;2.63;;;;;;;20.15;73.72;99957.59;5071201;28;20682;-68
2023/08/27 02:12:55;;;;;;;7.33;2.70;;;;;;;20.19;73.32;99952.59;5070715;28;20317;-67
2023/08/27 02:15:22;;;;;;;5.87;2.73;;;;;;;20.19;73.45;99949.91;5075009;28;20207;-67
2023/08/27 02:17:49;;;;;;;4.90;2.60;;;;;;;20.15;73.90;99952.19;5074139;28;20211;-67
2023/08/27 02:20:18;;;;;;;5.33;2.60;;;;;;;20.10;74.25;99959.31;5071114;28;20599;-67
2023/08/27 02:22:45;;;;;;;4.60;2.53;;;;;;;20.09;74.05;99968.44;5070543;28;20233;-67
2023/08/27 02:25:13;;;;;;;6.83;3.13;;;;;;;20.13;73.62;99977.72;5071162;28;20211;-68
2023/08/27 02:27:41;;;;;;;4.73;2.70;;;;;;;20.14;73.44;99982.84;5073928;28;20674;-68
2023/08/27 02:30:11;;;;;;;3.83;2.40;;;;;;;20.18;72.85;99980.56;5076075;28;20234;-66
2023/08/27 02:32:38;;;;;;;3.93;2.50;;;;;;;20.12;73.70;99986.84;5071297;28;20290;-67
2023/08/27 02:35:07;;;;;;;3.97;2.63;;;;;;;20.03;73.81;99980.09;5074952;28;20982;-68
2023/08/27 02:37:35;;;;;;;8.37;2.83;;;;;;;19.87;74.99;99971.53;5072416;28;20203;-66
2023/08/27 02:40:03;;;;;;;9.63;2.93;;;;;;;19.77;75.67;99976.59;5071745;28;20679;-67
2023/08/27 02:42:31;;;;;;;5.73;2.90;;;;;;;19.74;75.61;99965.44;5073032;28;20673;-69
2023/08/27 02:44:59;;;;;;;7.73;3.00;;;;;;;19.76;75.92;99956.09;5071396;28;20729;-66
2023/08/27 02:47:28;;;;;;;7.27;2.40;;;;;;;19.80;75.93;99953.78;5070489;28;20222;-67
2023/08/27 02:49:56;;;;;;;8.37;2.90;;;;;;;19.77;76.32;99971.22;5073598;28;20235;-68
2023/08/27 02:52:23;;;;;;;7.80;2.67;;;;;;;19.79;75.92;99973.69;5073093;28;20291;-71
2023/08/27 02:54:51;;;;;;;4.73;2.63;;;;;;;19.91;75.33;99979.97;5070901;28;20286;-68
2023/08/27 02:57:19;;;;;;;5.77;2.83;;;;;;;19.92;75.05;99979.75;5071203;28;20211;-68
2023/08/27 02:59:46;;;;;;;7.83;3.67;;;;;;;19.94;74.86;99981.41;5074239;28;20298;-69
2023/08/27 03:02:14;;;;;;;4.50;2.60;;;;;;;19.85;74.58;99976.31;5071478;28;21435;-68
2023/08/27 03:04:43;;;;;;;7.73;3.57;;;;;;;19.85;74.26;99965.56;5073980;28;20211;-69
2023/08/27 03:07:11;;;;;;;4.20;2.57;;;;;;;19.83;74.67;99972.19;5073587;28;20211;-69
2023/08/27 03:09:39;;;;;;;6.97;2.70;;;;;;;19.89;74.12;99982.88;5072540;28;20681;-67
2023/08/27 03:12:07;;;;;;;6.13;3.00;;;;;;;19.92;73.92;99981.63;5074104;28;20211;-69
2023/08/27 03:14:35;;;;;;;3.97;2.50;;;;;;;19.89;73.82;99987.44;5072716;28;20209;-68
2023/08/27 03:17:02;;;;;;;5.10;3.20;;;;;;;19.91;73.77;99975.41;5067840;28;20210;-68
2023/08/27 03:19:30;;;;;;;3.83;2.90;;;;;;;19.91;73.83;99971.91;5072661;28;20329;-69
2023/08/27 03:22:00;;;;;;;5.67;2.87;;;;;;;19.90;73.60;99986.41;5074307;28;20219;-67
2023/08/27 03:24:27;;;;;;;6.47;3.30;;;;;;;19.81;74.04;99974.25;5071478;28;20278;-67
2023/08/27 03:26:55;;;;;;;7.03;2.87;;;;;;;19.75;74.34;99983.22;5072008;28;20207;-69
2023/08/27 03:29:23;;;;;;;4.53;2.43;;;;;;;19.72;74.59;99957.56;5077508;28;20328;-68
2023/08/27 03:31:51;;;;;;;5.80;2.60;;;;;;;19.77;74.21;99952.38;5081068;28;20293;-68
2023/08/27 03:34:19;;;;;;;9.60;2.80;;;;;;;19.77;74.23;99963.13;5076178;28;20249;-66
2023/08/27 03:36:46;;;;;;;5.33;2.67;;;;;;;19.79;73.97;99969.09;5079582;28;20213;-68
2023/08/27 03:39:16;;;;;;;7.20;2.83;;;;;;;19.86;73.65;99969.06;5079900;28;20213;-67
2023/08/27 03:41:44;;;;;;;6.43;2.83;;;;;;;19.89;73.96;99953.28;5077516;28;20242;-68
2023/08/27 03:44:12;;;;;;;7.07;2.67;;;;;;;19.77;73.90;99952.38;5079103;28;20215;-67
2023/08/27 03:46:40;;;;;;;7.63;3.07;;;;;;;19.68;74.41;99961.75;5081268;28;20302;-67
2023/08/27 03:49:08;;;;;;;5.60;2.80;;;;;;;19.56;74.92;99951.91;5077045;28;20227;-69
2023/08/27 03:51:36;;;;;;;5.40;2.63;;;;;;;19.53;75.26;99950.50;5077668;28;20207;-71
2023/08/27 03:54:04;;;;;;;7.00;3.00;;;;;;;19.50;75.38;99945.56;5074150;28;20643;-69
2023/08/27 03:56:33;;;;;;;6.37;2.60;;;;;;;19.39;75.82;99941.69;5075405;28;20943;-68
2023/08/27 03:59:00;;;;;;;5.53;2.60;;;;;;;19.27;76.69;99934.53;5075204;28;20211;-68
2023/08/27 04:01:28;;;;;;;8.30;2.80;;;;;;;19.22;77.33;99942.41;5075529;28;20212;-68
2023/08/27 04:03:56;;;;;;;9.63;3.10;;;;;;;19.27;77.05;99943.41;5076198;28;20199;-66
2023/08/27 04:06:23;;;;;;;9.90;2.77;;;;;;;19.28;77.01;99945.06;5072806;28;20199;-68
2023/08/27 04:08:51;;;;;;;7.17;2.70;;;;;;;19.29;77.29;99945.88;5074561;28;20216;-67
2023/08/27 04:11:19;;;;;;;5.97;2.87;;;;;;;19.28;77.79;99938.84;5076211;28;20219;-67
2023/08/27 04:13:49;;;;;;;10.33;2.77;;;;;;;19.31;77.21;99930.38;5078111;28;20286;-68
2023/08/27 04:16:17;;;;;;;7.10;3.20;;;;;;;19.35;76.92;99928.91;5074635;28;20215;-67
2023/08/27 04:18:45;;;;;;;6.60;2.80;;;;;;;19.44;76.74;99927.56;5077195;28;20643;-69
2023/08/27 04:21:13;;;;;;;9.47;3.00;;;;;;;19.58;76.11;99922.94;5077351;28;20292;-67
2023/08/27 04:23:40;;;;;;;5.73;2.67;;;;;;;19.62;75.43;99919.59;5079156;28;20362;-68
2023/08/27 04:26:08;;;;;;;7.37;2.40;;;;;;;19.62;74.80;99919.59;5074980;28;20234;-67
2023/08/27 04:28:37;;;;;;;7.57;2.57;;;;;;;19.70;74.13;99921.22;5071070;28;20239;-70
2023/08/27 04:31:06;;;;;;;9.03;2.37;;;;;;;19.67;73.78;99929.72;5075228;28;20351;-66
2023/08/27 04:33:34;;;;;;;2.83;1.73;;;;;;;19.65;73.76;99935.28;5074378;28;20257;-70
2023/08/27 04:36:02;;;;;;;5.63;2.30;;;;;;;19.64;73.76;99944.41;5075904;28;20283;-71
2023/08/27 04:38:31;;;;;;;6.90;2.17;;;;;;;19.68;73.38;99945.63;5074524;28;20242;-67
2023/08/27 04:40:58;;;;;;;4.33;2.27;;;;;;;19.68;73.31;99944.81;5075088;28;20681;-69
2023/08/27 04:43:26;;;;;;;4.53;2.53;;;;;;;19.64;73.66;99932.81;5073606;28;20298;-67
2023/08/27 04:45:54;;;;;;;4.83;2.20;;;;;;;19.60;73.64;99932.47;5075813;28;20264;-68
2023/08/27 04:48:23;;;;;;;11.57;2.33;;;;;;;19.61;73.79;99917.97;5071242;28;20937;-70
2023/08/27 04:50:51;;;;;;;7.40;2.70;;;;;;;19.52;74.16;99919.28;5073129;28;20339;-67
2023/08/27 04:53:19;;;;;;;7.07;2.53;;;;;;;19.43;74.94;99928.63;5074791;28;20199;-69
2023/08/27 04:55:48;;;;;;;6.17;2.40;;;;;;;19.44;74.77;99911.44;5074924;28;20238;-69
2023/08/27 04:58:16;;;;;;;7.47;2.30;;;;;;;19.39;75.24;99924.72;5073709;28;20265;-68
2023/08/27 05:00:44;;;;;;;6.60;2.50;;;;;;;19.41;75.23;99928.03;5076866;28;20206;-69
2023/08/27 05:03:11;;;;;;;6.20;2.53;;;;;;;19.49;75.09;99927.78;5076105;28;20203;-67
2023/08/27 05:05:40;;;;;;;7.80;2.93;;;;;;;19.50;75.04;99929.44;5074160;28;20198;-68
2023/08/27 05:08:08;;;;;;;5.97;2.57;;;;;;;19.54;75.07;99934.13;5078460;28;20252;-66
2023/08/27 05:10:36;;;;;;;8.83;2.40;;;;;;;19.64;74.06;99936.34;5075941;28;20245;-66
2023/08/27 05:13:04;;;;;;;4.23;2.10;;;;;;;19.66;74.09;99938.81;5074988;28;20202;-67
2023/08/27 05:15:33;;;;;;;4.00;2.43;;;;;;;19.66;74.57;99936.94;5069870;28;20218;-68
2023/08/27 05:18:01;;;;;;;5.97;2.40;;;;;;;19.67;74.15;99933.22;5076697;28;20202;-68
2023/08/27 05:20:29;;;;;;;5.90;2.37;;;;;;;19.71;74.12;99947.03;5076512;28;20218;-69
2023/08/27 05:22:58;;;;;;;5.47;2.50;;;;;;;19.75;73.57;99940.19;5075983;28;20231;-66
2023/08/27 05:25:26;;;;;;;4.80;2.70;;;;;;;19.76;74.05;99942.66;5078066;28;20202;-71
2023/08/27 05:27:53;;;;;;;5.03;2.30;;;;;;;19.77;73.98;99938.94;5075727;28;20326;-69
2023/08/27 05:30:21;;;;;;;5.50;2.87;;;;;;;19.74;73.65;99923.22;5073597;28;20246;-68
2023/08/27 05:32:49;;;;;;;7.40;2.10;;;;;;;19.77;73.47;99916.59;5073283;28;20215;-69
2023/08/27 05:35:16;;;;;;;5.60;2.37;;;;;;;19.78;73.46;99929.81;5076598;28;20207;-70
2023/08/27 05:37:43;;;;;;;5.50;2.07;;;;;;;19.78;73.20;99921.75;5076284;28;20203;-69
2023/08/27 05:40:12;;;;;;;4.80;1.87;;;;;;;19.78;73.50;99924.44;5076626;28;20296;-69
2023/08/27 05:42:40;;;;;;;4.77;2.40;;;;;;;19.78;73.25;99908.28;5075650;28;20232;-68
2023/08/27 05:45:09;;;;;;;5.63;2.50;;;;;;;19.78;72.74;99927.13;5071446;28;20668;-68
2023/08/27 05:47:37;;;;;;;5.57;2.53;;;;;;;19.80;72.65;99924.19;5074050;28;20261;-69
2023/08/27 05:50:05;;;;;;;6.07;2.60;;;;;;;19.84;72.44;99937.00;5074631;28;20203;-69
2023/08/27 05:52:33;;;;;;;7.13;2.53;;;;;;;19.80;73.26;99927.72;5076578;28;20215;-69
2023/08/27 05:55:01;;;;;;;5.90;3.20;;;;;;;19.80;73.42;99925.00;5074669;28;20325;-68
2023/08/27 05:57:30;;;;;;;5.60;2.93;;;;;;;19.76;73.48;99925.69;5075267;28;20216;-71
2023/08/27 05:59:58;;;;;;;9.43;3.20;;;;;;;19.69;74.41;99920.38;5076020;28;20909;-69
2023/08/27 06:02:26;;;;;;;7.77;2.90;;;;;;;19.66;74.96;99911.91;5078470;28;20218;-69
2023/08/27 06:04:54;;;;;;;6.80;2.83;;;;;;;19.66;75.21;99911.91;5076726;28;20653;-69
2023/08/27 06:07:21;;;;;;;5.97;2.73;;;;;;;19.78;74.78;99910.16;5075800;28;20211;-68
2023/08/27 06:09:49;;;;;;;5.10;3.03;;;;;;;19.87;74.00;99906.16;5077575;28;20215;-68
2023/08/27 06:12:17;;;;;;;7.93;3.23;;;;;;;19.92;73.78;99909.81;5077020;28;20220;-69
2023/08/27 06:14:46;;;;;;;5.20;2.63;;;;;;;19.94;73.83;99916.84;5075608;28;20213;-69
2023/08/27 06:17:13;;;;;;;6.10;3.70;;;;;;;19.99;74.13;99920.50;5072520;28;20612;-70
2023/08/27 06:19:41;;;;;;;6.47;3.53;;;;;;;20.04;74.36;99917.97;5076417;28;20200;-69
2023/08/27 06:22:15;;;;;;;6.53;4.00;;;;;;;20.02;75.06;99919.22;5076815;28;20572;-69
2023/08/27 06:24:44;;;;;;;8.70;4.20;;;;;;;19.97;76.62;99913.69;5076317;28;20820;-68
2023/08/27 06:27:11;;;;;;;9.93;6.07;;;;;;;19.84;78.81;99912.78;5072251;28;20284;-69
2023/08/27 06:29:39;;;;;;;15.60;6.47;;;;;;;19.77;80.19;99924.66;5076672;28;20218;-68
2023/08/27 06:32:08;;;;;;;11.47;6.60;;;;;;;19.71;81.21;99928.22;5075854;28;20230;-67
2023/08/27 06:34:36;;;;;;;11.57;6.90;;;;;;;19.66;83.08;99942.31;5076260;28;20234;-69
2023/08/27 06:37:04;;;;;;;10.93;6.57;;;;;;;19.60;82.83;99947.78;5076571;28;20885;-69
2023/08/27 06:39:32;;;;;;;8.73;6.97;;;;;;;19.61;83.27;99955.63;5076720;28;20222;-71
2023/08/27 06:41:59;;;;;;;13.97;7.23;;;;;;;19.52;84.23;99952.38;5076197;28;20258;-68
2023/08/27 06:44:27;;;;;;;10.03;7.20;;;;;;;19.48;85.33;99934.19;5075964;28;20261;-67
2023/08/27 06:46:55;;;;;;;12.27;6.93;;;;;;;19.49;84.78;99938.53;5076225;28;20898;-68
2023/08/27 06:49:24;;;;;;;11.33;7.40;;;;;;;19.60;83.08;99942.38;5072832;28;20234;-67
2023/08/27 06:51:52;;;;;;;13.10;7.50;;;;;;;19.75;81.33;99948.25;5069472;28;20237;-69
2023/08/27 06:54:20;;;;;;;15.60;8.53;;;;;;;19.88;80.53;99951.63;5073662;28;20281;-69
2023/08/27 06:56:48;;;;;;;12.40;7.47;;;;;;;19.99;80.35;99952.78;5075454;28;20207;-68
2023/08/27 06:59:16;;;;;;;14.17;8.13;;;;;;;20.08;81.11;99966.78;5074278;28;20817;-68
2023/08/27 07:01:45;;;;;;;11.43;7.10;;;;;;;20.12;80.12;99978.75;5073376;28;20207;-68
2023/08/27 07:04:13;;;;;;;11.37;4.50;;;;;;;20.15;79.38;99981.81;5076372;28;20290;-68
2023/08/27 07:06:42;;;;;;;7.80;4.13;;;;;;;20.20;77.58;99989.25;5080435;28;20213;-69
2023/08/27 07:09:10;;;;;;;7.87;3.83;;;;;;;20.21;77.25;99980.94;5076608;28;20211;-69
2023/08/27 07:11:39;;;;;;;9.40;5.37;;;;;;;20.13;77.85;99980.41;5074642;28;20315;-68
2023/08/27 07:14:06;;;;;;;15.00;7.10;;;;;;;20.07;78.16;99962.44;5078486;28;20201;-69
2023/08/27 07:16:34;;;;;;;13.57;7.77;;;;;;;20.10;78.93;99953.94;5079128;28;20286;-68
2023/08/27 07:19:02;;;;;;;11.70;6.23;;;;;;;20.00;78.81;99942.84;5078084;28;20297;-68
2023/08/27 07:21:30;;;;;;;12.20;6.00;;;;;;;19.83;79.18;99938.03;5077469;28;20313;-70
2023/08/27 07:23:59;;;;;;;9.63;6.30;;;;;;;19.80;79.70;99941.16;5079862;28;20290;-70
2023/08/27 07:26:27;;;;;;;14.23;8.37;;;;;;;19.74;80.96;99950.13;5078179;28;20335;-68
2023/08/27 07:28:54;;;;;;;11.73;7.60;;;;;;;19.72;80.95;99946.00;5077538;28;20627;-69
2023/08/27 07:31:22;;;;;;;10.67;7.73;;;;;;;19.72;81.58;99938.75;5078241;28;20235;-67
2023/08/27 07:33:50;;;;;;;14.33;8.20;;;;;;;19.69;81.92;99938.38;5081567;28;20217;-68
2023/08/27 07:36:17;;;;;;;14.80;9.53;;;;;;;19.76;82.21;99947.22;5077351;28;20301;-69
2023/08/27 07:38:45;;;;;;;14.13;8.07;;;;;;;19.79;81.28;99944.09;5076567;28;20211;-69
2023/08/27 07:41:14;;;;;;;11.17;7.40;;;;;;;19.85;80.99;99949.41;5078212;28;20577;-68
2023/08/27 07:43:42;;;;;;;9.80;6.83;;;;;;;19.98;80.74;99956.50;5090216;28;20207;-68
2023/08/27 07:46:10;;;;;;;12.37;7.93;;;;;;;20.13;80.20;99956.19;5088772;28;20216;-68
2023/08/27 07:48:37;;;;;;;11.17;7.10;;;;;;;20.19;80.60;99960.66;5082594;28;20211;-69
2023/08/27 07:51:06;;;;;;;12.17;7.83;;;;;;;20.22;80.65;99946.78;5086245;28;20202;-69
2023/08/27 07:53:34;;;;;;;11.30;8.43;;;;;;;20.24;81.02;99939.28;5088472;28;20207;-69
2023/08/27 07:56:02;;;;;;;10.87;7.53;;;;;;;20.27;79.81;99941.53;5087306;28;20302;-68
2023/08/27 07:58:31;;;;;;;11.93;8.13;;;;;;;20.26;79.98;99946.09;5085235;28;20207;-69
2023/08/27 08:01:02;;;;;;;14.13;9.03;;;;;;;20.27;81.08;99955.00;5087374;28;20378;-70
2023/08/27 08:03:30;;;;;;;12.27;7.87;;;;;;;20.28;81.00;99962.84;5086438;28;20209;-69
2023/08/27 08:05:57;;;;;;;14.33;8.20;;;;;;;20.34;80.56;99971.06;5089158;28;20203;-68
2023/08/27 08:08:26;;;;;;;11.63;7.27;;;;;;;20.40;81.26;99984.50;5084232;28;20262;-68
2023/08/27 08:10:55;;;;;;;12.17;8.27;;;;;;;20.44;80.58;99992.94;5079381;28;20241;-69
2023/08/27 08:13:23;;;;;;;15.30;9.87;;;;;;;20.44;81.30;99991.09;5078040;28;20237;-68
2023/08/27 08:15:53;;;;;;;14.57;9.00;;;;;;;20.41;81.74;99991.50;5078040;28;20210;-70
2023/08/27 08:18:20;;;;;;;10.93;7.80;;;;;;;20.40;81.01;99981.00;5079007;28;20208;-69
2023/08/27 08:20:48;;;;;;;14.37;8.53;;;;;;;20.42;81.30;99973.50;5075164;28;20237;-69
2023/08/27 08:23:16;;;;;;;13.53;7.73;;;;;;;20.50;81.53;99974.00;5075270;28;20214;-68
2023/08/27 08:25:44;;;;;;;15.00;9.10;;;;;;;20.53;81.20;99980.84;5074568;28;20305;-68
2023/08/27 08:28:12;;;;;;;13.17;7.70;;;;;;;20.55;80.86;99971.50;5073658;28;20211;-69
2023/08/27 08:30:46;;;;;;;14.80;8.53;;;;;;;20.72;80.14;99970.88;5079101;28;20283;-69
2023/08/27 08:33:16;;;;;;;11.40;7.50;;;;;;;20.80;79.34;99976.78;5077276;28;20247;-69
2023/08/27 08:35:44;;;;;;;12.23;7.77;;;;;;;20.96;80.04;99970.75;5075325;28;20321;-69
2023/08/27 08:38:12;;;;;;;13.17;6.77;;;;;;;21.11;78.63;99981.13;5073536;28;20203;-70
2023/08/27 08:40:44;;;;;;;12.13;6.60;;;;;;;21.31;77.61;99983.56;5080037;28;20934;-69
2023/08/27 08:43:20;;;;;;;12.33;5.63;;;;;;;21.32;76.00;99994.13;5078147;28;20262;-68
2023/08/27 08:45:58;;;;;;;11.90;5.30;;;;;;;21.45;75.47;100005.81;5080326;28;20369;-69
2023/08/27 08:48:33;;;;;;;9.97;5.47;;;;;;;21.37;74.66;100010.44;5076673;28;20281;-68
2023/08/27 08:51:04;;;;;;;13.63;5.20;;;;;;;21.39;74.02;100011.03;5077864;28;20230;-68
2023/08/27 08:53:35;;;;;;;9.50;5.20;;;;;;;21.39;74.70;100002.94;5074630;28;20318;-69
2023/08/27 08:56:06;;;;;;;11.97;4.13;;;;;;;21.43;73.93;100002.50;5077026;28;20306;-70
2023/08/27 08:58:36;;;;;;;6.37;4.10;;;;;;;21.45;73.77;100008.50;5073071;28;20261;-69
2023/08/27 09:01:05;;;;;;;11.83;4.97;;;;;;;21.45;72.90;100008.50;5078138;28;20199;-70
2023/08/27 09:03:36;;;;;;;10.33;5.37;;;;;;;21.53;73.58;100008.16;5076468;28;20211;-69
2023/08/27 09:06:04;;;;;;;10.33;5.53;;;;;;;21.64;73.35;100001.94;5076584;28;20993;-68
2023/08/27 09:08:34;;;;;;;9.73;4.87;;;;;;;21.66;72.48;100011.47;5075728;28;20226;-68
2023/08/27 09:11:02;;;;;;;8.37;4.27;;;;;;;21.70;72.17;100006.44;5075112;28;20247;-69
2023/08/27 09:13:30;;;;;;;11.40;5.50;;;;;;;21.67;71.92;99998.81;5074191;28;20300;-68
2023/08/27 09:15:58;;;;;;;9.87;5.33;;;;;;;21.60;72.21;99992.69;5076730;28;20289;-69
2023/08/27 09:18:26;;;;;;;9.30;5.17;;;;;;;21.56;72.84;99996.91;5075939;28;20235;-68
2023/08/27 09:20:55;;;;;;;6.83;5.07;;;;;;;21.54;72.50;99996.31;5076709;28;20210;-68
2023/08/27 09:23:23;;;;;;;10.70;5.80;;;;;;;21.54;72.56;99997.16;5076693;28;20829;-71
2023/08/27 09:25:51;;;;;;;9.87;5.67;;;;;;;21.57;72.38;99998.53;5080513;28;20215;-68
2023/08/27 09:28:20;;;;;;;8.27;4.77;;;;;;;21.59;71.82;99991.88;5074262;28;20281;-69
2023/08/27 09:30:47;;;;;;;7.07;4.33;;;;;;;21.70;72.39;99985.69;5074003;28;20316;-69
2023/08/27 09:33:15;;;;;;;8.10;5.40;;;;;;;21.83;72.00;99971.13;5071903;28;20600;-68
2023/08/27 09:35:43;;;;;;;12.20;4.50;;;;;;;22.13;70.37;99971.88;5075202;28;20779;-69
2023/08/27 09:38:14;;;;;;;6.25;3.83;;;;;;;22.28;69.29;99948.97;5072396;28;20571;-68
2023/08/27 09:40:42;;;;;;;8.20;4.10;;;;;;;22.40;68.17;99941.69;5072724;28;20676;-68
2023/08/27 09:43:12;;;;;;;6.97;4.13;;;;;;;22.43;68.54;99931.19;5076939;28;20716;-68
2023/08/27 09:45:39;;;;;;;9.70;5.30;;;;;;;22.50;68.38;99928.41;5077906;28;20204;-68
2023/08/27 09:48:07;;;;;;;8.48;4.75;;;;;;;22.53;68.07;99922.50;5079087;28;20208;-69
2023/08/27 09:50:35;;;;;;;8.13;4.65;;;;;;;22.64;66.96;99928.94;5073455;28;20661;-69
2023/08/27 09:53:07;;;;;;;6.65;3.90;;;;;;;22.76;67.81;99929.75;5072036;28;20236;-68
2023/08/27 09:55:37;;;;;;;6.85;4.05;;;;;;;23.01;67.61;99924.00;5075372;28;20210;-69
2023/08/27 09:58:05;;;;;;;7.65;3.67;;;;;;;23.16;65.75;99926.97;5072222;28;20801;-68
2023/08/27 10:00:34;;;;;;;6.90;4.30;;;;;;;23.41;62.98;99926.59;5072145;28;20269;-70
2023/08/27 10:03:02;;;;;;;6.72;3.60;;;;;;;23.45;63.86;99923.16;5070604;28;20298;-69
2023/08/27 10:05:33;;;;;;;7.20;3.63;;;;;;;23.53;62.04;99917.38;5071626;28;20552;-69
2023/08/27 10:08:02;;;;;;;4.50;2.63;;;;;;;23.54;61.41;99918.19;5072916;28;20334;-68
2023/08/27 10:10:31;;;;;;;4.75;2.92;;;;;;;23.48;61.18;99917.28;5072027;28;20204;-69
2023/08/27 10:13:02;;;;;;;9.50;3.13;;;;;;;23.35;61.92;99924.88;5074911;28;20401;-69
2023/08/27 10:15:31;;;;;;;5.68;3.08;;;;;;;23.26;62.77;99933.38;5069169;28;20736;-67
2023/08/27 10:18:00;;;;;;;7.43;3.55;;;;;;;23.20;62.88;99928.97;5072423;28;20801;-69
2023/08/27 10:20:29;;;;;;;8.27;3.10;;;;;;;23.30;62.62;99925.63;5072471;28;20250;-68
2023/08/27 10:22:57;;;;;;;6.50;2.92;;;;;;;23.37;62.44;99928.97;5073978;28;20640;-67
2023/08/27 10:25:27;;;;;;;7.72;2.78;;;;;;;23.36;61.51;99921.94;5069450;28;20284;-69
2023/08/27 10:27:55;;;;;;;8.32;3.00;;;;;;;23.27;60.81;99918.81;5070879;28;20652;-66
2023/08/27 10:30:26;;;;;;;3.90;2.28;;;;;;;23.11;61.69;99925.00;5070238;28;20203;-68
2023/08/27 10:32:54;;;;;;;12.45;2.78;;;;;;;22.99;63.10;99926.13;5071484;28;20219;-67
2023/08/27 10:35:22;;;;;;;6.03;2.72;;;;;;;22.91;62.92;99913.81;5073469;28;20687;-68
2023/08/27 10:37:55;;;;;;;3.67;2.17;;;;;;;22.86;63.54;99919.16;5077315;28;20200;-67
2023/08/27 10:40:25;;;;;;;5.28;2.20;;;;;;;22.81;63.89;99903.63;5073726;28;20238;-68
2023/08/27 10:43:07;;;;;;;5.18;2.55;;;;;;;22.78;63.79;99909.50;5072271;28;20314;-69
2023/08/27 10:45:38;;;;;;;6.97;2.92;;;;;;;22.73;64.10;99909.41;5073170;28;20281;-68
2023/08/27 10:48:07;;;;;;;5.95;2.60;;;;;;;22.67;64.55;99907.66;5072655;28;20226;-67
2023/08/27 10:50:46;;;;;;;4.15;2.53;;;;;;;22.60;64.69;99901.59;5074754;28;20247;-64
2023/08/27 10:53:15;;;;;;;3.80;2.33;;;;;;;22.51;65.32;99901.13;5071266;28;20219;-65
2023/08/27 10:55:44;;;;;;;5.45;2.67;;;;;;;22.45;65.88;99914.75;5070841;28;20221;-65
2023/08/27 10:58:16;;;;;;;4.57;2.83;;;;;;;22.45;65.60;99912.06;5074869;28;20207;-65
2023/08/27 11:01:07;;;;;;;5.68;2.75;;;;;;;22.50;65.22;99912.19;5076610;28;20202;-65
2023/08/27 11:03:51;;;;;;;6.82;3.40;;;;;;;22.62;64.74;99904.84;5072148;28;20210;-65
2023/08/27 11:06:20;;;;;;;6.18;2.28;;;;;;;22.61;64.66;99924.81;5074812;28;20203;-65
2023/08/27 11:08:52;;;;;;;7.88;2.63;;;;;;;22.63;64.20;99921.88;5068749;28;20296;-64
2023/08/27 11:11:24;;;;;;;8.32;3.90;;;;;;;22.73;63.87;99909.41;5069630;28;20282;-66
2023/08/27 11:14:01;;;;;;;7.07;2.58;;;;;;;22.70;63.79;99915.28;5073296;28;20215;-63
2023/08/27 11:16:48;;;;;;;6.13;2.83;;;;;;;22.63;64.47;99914.59;5071172;28;20207;-65
2023/08/27 11:19:25;;;;;;;6.00;2.90;;;;;;;22.64;63.77;99912.72;5070864;28;20564;-65
2023/08/27 11:22:09;;;;;;;6.63;2.75;;;;;;;22.63;64.24;99897.56;5068713;28;20199;-65
2023/08/27 11:24:42;;;;;;;7.65;3.20;;;;;;;22.60;65.05;99904.28;5071764;28;20191;-65
2023/08/27 11:27:11;;;;;;;6.78;2.70;;;;;;;22.60;65.33;99907.00;5069267;28;20293;-65
2023/08/27 11:29:41;;;;;;;6.00;2.75;;;;;;;22.70;64.91;99904.47;5070525;28;20228;-67
2023/08/27 11:32:11;;;;;;;6.07;2.80;;;;;;;22.72;64.87;99905.03;5072337;28;20250;-67
2023/08/27 11:34:40;;;;;;;4.85;2.53;;;;;;;22.70;65.00;99907.16;5071134;28;20238;-71
2023/08/27 11:37:09;;;;;;;7.43;3.35;;;;;;;22.71;65.56;99907.97;5066773;28;20631;-68